sensor_id;sensor_type;location;lat;lon;timestamp;pressure;altitude;pressure_sealevel;temperature;humidity
83460;BME280;73384;49.646;7.168;2024-03-25T00:03:13;96533.69;;;3.04;74.61
83460;BME280;73384;49.646;7.168;2024-03-25T00:05:48;96541.41;;;3.05;74.58
83460;BME280;73384;49.646;7.168;2024-03-25T00:14:42;96521.50;;;2.68;75.77
83460;BME280;73384;49.646;7.168;2024-03-25T00:20:47;96555.63;;;2.63;77.58
83460;BME280;73384;49.646;7.168;2024-03-25T00:23:58;96582.72;;;2.72;77.95
83460;BME280;73384;49.646;7.168;2024-03-25T00:26:23;96581.31;;;2.69;77.94
83460;BME280;73384;49.646;7.168;2024-03-25T00:28:52;96535.91;;;2.37;78.04
83460;BME280;73384;49.646;7.168;2024-03-25T00:31:42;96569.31;;;2.45;78.81
83460;BME280;73384;49.646;7.168;2024-03-25T00:34:28;96586.06;;;2.52;79.10
83460;BME280;73384;49.646;7.168;2024-03-25T00:37:45;96541.25;;;2.15;79.73
83460;BME280;73384;49.646;7.168;2024-03-25T00:40:51;96535.47;;;2.05;79.84
83460;BME280;73384;49.646;7.168;2024-03-25T00:43:25;96557.66;;;2.11;80.45
83460;BME280;73384;49.646;7.168;2024-03-25T00:46:23;96560.63;;;2.01;80.85
83460;BME280;73384;49.646;7.168;2024-03-25T00:49:14;96561.72;;;1.85;82.09
83460;BME280;73384;49.646;7.168;2024-03-25T00:52:03;96541.28;;;1.72;82.10
83460;BME280;73384;49.646;7.168;2024-03-25T00:58:12;96576.59;;;1.71;82.40
83460;BME280;73384;49.646;7.168;2024-03-25T01:01:09;96589.78;;;1.71;83.30
83460;BME280;73384;49.646;7.168;2024-03-25T01:03:40;96590.41;;;1.73;83.50
83460;BME280;73384;49.646;7.168;2024-03-25T01:06:45;96542.00;;;1.44;82.89
83460;BME280;73384;49.646;7.168;2024-03-25T01:13:24;96550.31;;;1.63;82.71
83460;BME280;73384;49.646;7.168;2024-03-25T01:22:05;96555.16;;;1.81;81.35
83460;BME280;73384;49.646;7.168;2024-03-25T01:24:52;96562.41;;;1.72;81.51
83460;BME280;73384;49.646;7.168;2024-03-25T01:27:35;96596.38;;;1.97;82.05
83460;BME280;73384;49.646;7.168;2024-03-25T01:33:34;96582.44;;;1.67;82.38
83460;BME280;73384;49.646;7.168;2024-03-25T01:36:20;96577.78;;;1.69;82.62
83460;BME280;73384;49.646;7.168;2024-03-25T01:39:17;96545.06;;;1.48;82.76
83460;BME280;73384;49.646;7.168;2024-03-25T01:42:04;96578.81;;;1.68;82.98
83460;BME280;73384;49.646;7.168;2024-03-25T01:44:57;96582.03;;;1.48;83.60
83460;BME280;73384;49.646;7.168;2024-03-25T01:47:47;96578.69;;;1.24;84.27
83460;BME280;73384;49.646;7.168;2024-03-25T01:50:30;96546.72;;;1.13;84.77
83460;BME280;73384;49.646;7.168;2024-03-25T01:53:04;96557.28;;;1.13;84.78
83460;BME280;73384;49.646;7.168;2024-03-25T01:56:13;96571.59;;;1.40;84.17
83460;BME280;73384;49.646;7.168;2024-03-25T02:02:00;96571.56;;;1.03;85.53
83460;BME280;73384;49.646;7.168;2024-03-25T02:04:39;96572.38;;;1.19;84.84
83460;BME280;73384;49.646;7.168;2024-03-25T02:07:26;96554.94;;;0.88;85.83
83460;BME280;73384;49.646;7.168;2024-03-25T02:10:21;96540.28;;;1.00;85.45
83460;BME280;73384;49.646;7.168;2024-03-25T02:15:48;96564.63;;;1.17;84.88
83460;BME280;73384;49.646;7.168;2024-03-25T02:18:27;96558.56;;;0.87;85.78
83460;BME280;73384;49.646;7.168;2024-03-25T02:21:11;96518.56;;;0.53;85.80
83460;BME280;73384;49.646;7.168;2024-03-25T02:23:59;96546.66;;;0.61;86.49
83460;BME280;73384;49.646;7.168;2024-03-25T02:26:33;96530.28;;;0.36;87.35
83460;BME280;73384;49.646;7.168;2024-03-25T02:29:32;96559.53;;;0.56;86.94
83460;BME280;73384;49.646;7.168;2024-03-25T02:35:15;96556.53;;;0.59;86.84
83460;BME280;73384;49.646;7.168;2024-03-25T02:38:03;96561.38;;;0.70;87.20
83460;BME280;73384;49.646;7.168;2024-03-25T02:41:00;96558.94;;;0.69;86.79
83460;BME280;73384;49.646;7.168;2024-03-25T02:43:41;96533.72;;;0.51;86.67
83460;BME280;73384;49.646;7.168;2024-03-25T02:49:07;96561.34;;;0.41;87.11
83460;BME280;73384;49.646;7.168;2024-03-25T02:51:49;96555.69;;;0.44;87.84
83460;BME280;73384;49.646;7.168;2024-03-25T02:54:29;96560.78;;;0.45;87.62
83460;BME280;73384;49.646;7.168;2024-03-25T03:00:20;96559.91;;;0.53;87.14
83460;BME280;73384;49.646;7.168;2024-03-25T03:03:00;96553.47;;;1.00;85.36
83460;BME280;73384;49.646;7.168;2024-03-25T03:05:55;96524.84;;;0.67;85.07
83460;BME280;73384;49.646;7.168;2024-03-25T03:11:34;96507.47;;;0.28;86.57
83460;BME280;73384;49.646;7.168;2024-03-25T03:14:31;96530.72;;;0.40;86.26
83460;BME280;73384;49.646;7.168;2024-03-25T03:17:11;96528.16;;;0.16;86.84
83460;BME280;73384;49.646;7.168;2024-03-25T03:22:47;96560.09;;;0.13;88.15
83460;BME280;73384;49.646;7.168;2024-03-25T03:25:17;96557.97;;;-0.06;88.16
83460;BME280;73384;49.646;7.168;2024-03-25T03:27:51;96563.34;;;-0.23;88.99
83460;BME280;73384;49.646;7.168;2024-03-25T03:30:37;96559.41;;;-0.27;90.10
83460;BME280;73384;49.646;7.168;2024-03-25T03:33:11;96560.28;;;-0.34;89.66
83460;BME280;73384;49.646;7.168;2024-03-25T03:36:06;96508.59;;;-0.74;90.11
83460;BME280;73384;49.646;7.168;2024-03-25T03:42:06;96550.66;;;-0.65;90.39
83460;BME280;73384;49.646;7.168;2024-03-25T03:44:37;96553.00;;;-0.79;90.34
83460;BME280;73384;49.646;7.168;2024-03-25T03:47:40;96519.97;;;-1.04;90.69
83460;BME280;73384;49.646;7.168;2024-03-25T03:50:14;96552.31;;;-1.04;90.96
83460;BME280;73384;49.646;7.168;2024-03-25T03:52:54;96517.94;;;-1.34;91.32
83460;BME280;73384;49.646;7.168;2024-03-25T03:56:10;96551.06;;;-1.24;90.91
83460;BME280;73384;49.646;7.168;2024-03-25T03:59:55;96515.22;;;-1.57;90.60
83460;BME280;73384;49.646;7.168;2024-03-25T04:02:16;96542.28;;;-1.48;91.20
83460;BME280;73384;49.646;7.168;2024-03-25T04:05:05;96556.88;;;-1.46;91.10
83460;BME280;73384;49.646;7.168;2024-03-25T04:10:29;96556.09;;;-1.63;91.02
83460;BME280;73384;49.646;7.168;2024-03-25T04:13:19;96563.81;;;-1.69;91.11
83460;BME280;73384;49.646;7.168;2024-03-25T04:16:05;96555.28;;;-1.71;91.57
83460;BME280;73384;49.646;7.168;2024-03-25T04:18:53;96552.00;;;-1.82;91.07
83460;BME280;73384;49.646;7.168;2024-03-25T04:21:38;96551.06;;;-1.89;90.59
83460;BME280;73384;49.646;7.168;2024-03-25T04:27:57;96545.13;;;-1.99;90.92
83460;BME280;73384;49.646;7.168;2024-03-25T04:30:37;96550.56;;;-2.01;91.48
83460;BME280;73384;49.646;7.168;2024-03-25T04:33:08;96541.03;;;-2.02;91.73
83460;BME280;73384;49.646;7.168;2024-03-25T04:36:19;96519.09;;;-2.17;91.38
83460;BME280;73384;49.646;7.168;2024-03-25T04:39:34;96544.00;;;-1.88;91.62
83460;BME280;73384;49.646;7.168;2024-03-25T04:42:35;96548.09;;;-1.94;91.64
83460;BME280;73384;49.646;7.168;2024-03-25T04:45:21;96505.94;;;-2.25;91.79
83460;BME280;73384;49.646;7.168;2024-03-25T04:48:15;96501.03;;;-2.37;92.38
83460;BME280;73384;49.646;7.168;2024-03-25T04:51:07;96549.44;;;-2.06;92.36
83460;BME280;73384;49.646;7.168;2024-03-25T04:53:41;96514.00;;;-2.35;92.51
83460;BME280;73384;49.646;7.168;2024-03-25T04:56:53;96548.09;;;-2.10;92.69
83460;BME280;73384;49.646;7.168;2024-03-25T04:59:55;96545.81;;;-2.22;93.03
83460;BME280;73384;49.646;7.168;2024-03-25T05:02:55;96526.31;;;-2.44;92.90
83460;BME280;73384;49.646;7.168;2024-03-25T05:05:49;96538.09;;;-2.31;93.20
83460;BME280;73384;49.646;7.168;2024-03-25T05:09:01;96562.22;;;-2.28;92.85
83460;BME280;73384;49.646;7.168;2024-03-25T05:11:31;96559.22;;;-2.33;92.47
83460;BME280;73384;49.646;7.168;2024-03-25T05:14:39;96506.09;;;-2.68;92.51
83460;BME280;73384;49.646;7.168;2024-03-25T05:17:15;96555.78;;;-2.42;92.36
83460;BME280;73384;49.646;7.168;2024-03-25T05:26:13;96531.34;;;-2.67;92.66
83460;BME280;73384;49.646;7.168;2024-03-25T05:35:58;96534.94;;;-2.76;92.77
83460;BME280;73384;49.646;7.168;2024-03-25T05:38:35;96548.56;;;-2.56;93.00
83460;BME280;73384;49.646;7.168;2024-03-25T05:41:18;96524.28;;;-2.75;92.69
83460;BME280;73384;49.646;7.168;2024-03-25T05:43:46;96513.75;;;-2.83;93.07
83460;BME280;73384;49.646;7.168;2024-03-25T05:46:20;96542.81;;;-2.60;92.53
83460;BME280;73384;49.646;7.168;2024-03-25T05:49:01;96553.81;;;-2.40;93.11
83460;BME280;73384;49.646;7.168;2024-03-25T05:51:38;96578.28;;;-2.23;93.07
83460;BME280;73384;49.646;7.168;2024-03-25T05:57:46;96519.53;;;-2.63;93.17
83460;BME280;73384;49.646;7.168;2024-03-25T06:03:41;96590.91;;;-2.26;92.98
83460;BME280;73384;49.646;7.168;2024-03-25T06:10:08;96580.06;;;-2.31;92.80
83460;BME280;73384;49.646;7.168;2024-03-25T06:12:45;96549.06;;;-2.44;92.79
83460;BME280;73384;49.646;7.168;2024-03-25T06:15:20;96574.50;;;-2.20;92.74
83460;BME280;73384;49.646;7.168;2024-03-25T06:17:57;96589.28;;;-2.03;92.75
83460;BME280;73384;49.646;7.168;2024-03-25T06:23:51;96586.47;;;-1.93;92.84
83460;BME280;73384;49.646;7.168;2024-03-25T06:26:25;96586.97;;;-1.73;92.65
83460;BME280;73384;49.646;7.168;2024-03-25T06:29:13;96577.25;;;-1.48;92.17
83460;BME280;73384;49.646;7.168;2024-03-25T06:31:50;96587.81;;;-1.16;92.18
83460;BME280;73384;49.646;7.168;2024-03-25T06:34:49;96582.50;;;-0.92;91.77
83460;BME280;73384;49.646;7.168;2024-03-25T06:37:39;96552.88;;;-0.85;91.79
83460;BME280;73384;49.646;7.168;2024-03-25T06:43:01;96575.78;;;-0.40;90.85
83460;BME280;73384;49.646;7.168;2024-03-25T06:45:58;96523.75;;;-0.52;91.01
83460;BME280;73384;49.646;7.168;2024-03-25T06:48:40;96579.50;;;-0.03;91.10
83460;BME280;73384;49.646;7.168;2024-03-25T06:51:14;96584.94;;;0.19;91.60
83460;BME280;73384;49.646;7.168;2024-03-25T06:54:02;96561.06;;;0.35;91.23
83460;BME280;73384;49.646;7.168;2024-03-25T06:56:38;96583.38;;;0.63;90.69
83460;BME280;73384;49.646;7.168;2024-03-25T06:59:58;96555.63;;;0.67;90.33
83460;BME280;73384;49.646;7.168;2024-03-25T07:02:58;96527.66;;;0.81;90.23
83460;BME280;73384;49.646;7.168;2024-03-25T07:05:49;96574.41;;;1.23;90.27
83460;BME280;73384;49.646;7.168;2024-03-25T07:08:24;96554.22;;;1.31;89.92
83460;BME280;73384;49.646;7.168;2024-03-25T07:11:12;96541.63;;;1.48;89.40
83460;BME280;73384;49.646;7.168;2024-03-25T07:13:41;96540.88;;;1.54;89.08
83460;BME280;73384;49.646;7.168;2024-03-25T07:16:12;96546.03;;;1.62;88.89
83460;BME280;73384;49.646;7.168;2024-03-25T07:18:49;96577.88;;;1.97;89.10
83460;BME280;73384;49.646;7.168;2024-03-25T07:21:24;96576.00;;;1.91;88.64
83460;BME280;73384;49.646;7.168;2024-03-25T07:23:51;96546.78;;;1.56;88.64
83460;BME280;73384;49.646;7.168;2024-03-25T07:29:21;96533.28;;;1.44;89.30
83460;BME280;73384;49.646;7.168;2024-03-25T07:32:39;96530.38;;;1.60;88.40
83460;BME280;73384;49.646;7.168;2024-03-25T07:35:33;96569.31;;;1.95;87.96
83460;BME280;73384;49.646;7.168;2024-03-25T07:38:24;96513.50;;;1.55;88.54
83460;BME280;73384;49.646;7.168;2024-03-25T07:41:09;96569.69;;;1.92;88.47
83460;BME280;73384;49.646;7.168;2024-03-25T07:43:52;96551.47;;;1.97;87.99
83460;BME280;73384;49.646;7.168;2024-03-25T07:46:44;96549.91;;;2.09;87.97
83460;BME280;73384;49.646;7.168;2024-03-25T07:52:42;96512.22;;;1.94;86.96
83460;BME280;73384;49.646;7.168;2024-03-25T07:55:56;96554.56;;;2.29;87.54
83460;BME280;73384;49.646;7.168;2024-03-25T07:58:50;96552.69;;;2.23;87.02
83460;BME280;73384;49.646;7.168;2024-03-25T08:01:31;96561.94;;;2.33;86.85
83460;BME280;73384;49.646;7.168;2024-03-25T08:07:48;96536.44;;;2.26;85.99
83460;BME280;73384;49.646;7.168;2024-03-25T08:10:44;96574.06;;;2.56;86.02
83460;BME280;73384;49.646;7.168;2024-03-25T08:16:41;96575.25;;;2.75;85.05
83460;BME280;73384;49.646;7.168;2024-03-25T08:19:06;96578.66;;;3.04;83.86
83460;BME280;73384;49.646;7.168;2024-03-25T08:21:31;96574.31;;;2.90;84.11
83460;BME280;73384;49.646;7.168;2024-03-25T08:23:57;96583.19;;;2.75;84.20
83460;BME280;73384;49.646;7.168;2024-03-25T08:26:23;96563.69;;;2.83;84.30
83460;BME280;73384;49.646;7.168;2024-03-25T08:28:49;96571.00;;;2.87;84.26
83460;BME280;73384;49.646;7.168;2024-03-25T08:31:15;96570.59;;;2.84;83.65
83460;BME280;73384;49.646;7.168;2024-03-25T08:33:54;96571.72;;;3.03;84.63
83460;BME280;73384;49.646;7.168;2024-03-25T08:36:20;96565.06;;;3.14;83.24
83460;BME280;73384;49.646;7.168;2024-03-25T08:38:45;96545.56;;;3.21;84.91
83460;BME280;73384;49.646;7.168;2024-03-25T08:41:11;96562.16;;;3.50;82.70
83460;BME280;73384;49.646;7.168;2024-03-25T08:43:37;96562.03;;;3.78;81.96
83460;BME280;73384;49.646;7.168;2024-03-25T08:46:03;96549.84;;;3.97;79.75
83460;BME280;73384;49.646;7.168;2024-03-25T08:48:29;96547.38;;;4.56;79.50
83460;BME280;73384;49.646;7.168;2024-03-25T08:50:55;96525.09;;;4.84;78.38
83460;BME280;73384;49.646;7.168;2024-03-25T08:53:21;96537.28;;;4.98;76.49
83460;BME280;73384;49.646;7.168;2024-03-25T08:55:48;96534.59;;;5.18;75.68
83460;BME280;73384;49.646;7.168;2024-03-25T08:58:14;96528.91;;;5.08;74.94
83460;BME280;73384;49.646;7.168;2024-03-25T09:00:43;96518.97;;;4.90;75.53
83460;BME280;73384;49.646;7.168;2024-03-25T09:03:10;96526.09;;;4.96;75.63
83460;BME280;73384;49.646;7.168;2024-03-25T09:05:56;96531.22;;;4.91;75.06
83460;BME280;73384;49.646;7.168;2024-03-25T09:08:22;96515.78;;;5.20;74.80
83460;BME280;73384;49.646;7.168;2024-03-25T09:10:47;96523.13;;;5.25;74.01
83460;BME280;73384;49.646;7.168;2024-03-25T09:13:29;96521.41;;;5.44;73.51
83460;BME280;73384;49.646;7.168;2024-03-25T09:15:55;96507.09;;;5.45;73.39
83460;BME280;73384;49.646;7.168;2024-03-25T09:18:21;96514.81;;;5.53;73.27
83460;BME280;73384;49.646;7.168;2024-03-25T09:20:49;96505.28;;;6.09;72.42
83460;BME280;73384;49.646;7.168;2024-03-25T09:23:15;96485.09;;;6.70;70.36
83460;BME280;73384;49.646;7.168;2024-03-25T09:25:51;96494.19;;;7.18;67.72
83460;BME280;73384;49.646;7.168;2024-03-25T09:28:21;96488.81;;;7.97;65.48
83460;BME280;73384;49.646;7.168;2024-03-25T09:31:09;96472.94;;;8.97;61.83
83460;BME280;73384;49.646;7.168;2024-03-25T09:33:36;96464.91;;;9.09;60.23
83460;BME280;73384;49.646;7.168;2024-03-25T09:36:03;96459.88;;;9.53;59.82
83460;BME280;73384;49.646;7.168;2024-03-25T09:38:29;96463.34;;;9.82;56.83
83460;BME280;73384;49.646;7.168;2024-03-25T09:40:56;96466.25;;;10.66;56.23
83460;BME280;73384;49.646;7.168;2024-03-25T09:43:32;96453.16;;;11.08;52.56
83460;BME280;73384;49.646;7.168;2024-03-25T09:45:58;96454.47;;;11.06;52.82
83460;BME280;73384;49.646;7.168;2024-03-25T09:48:24;96430.88;;;11.84;49.56
83460;BME280;73384;49.646;7.168;2024-03-25T09:50:52;96442.63;;;11.02;51.71
83460;BME280;73384;49.646;7.168;2024-03-25T09:53:23;96438.09;;;10.41;51.05
83460;BME280;73384;49.646;7.168;2024-03-25T09:55:49;96440.13;;;10.95;50.42
83460;BME280;73384;49.646;7.168;2024-03-25T09:58:28;96443.38;;;11.96;45.62
83460;BME280;73384;49.646;7.168;2024-03-25T10:00:56;96424.53;;;12.66;45.09
83460;BME280;73384;49.646;7.168;2024-03-25T10:03:23;96427.75;;;13.21;43.65
83460;BME280;73384;49.646;7.168;2024-03-25T10:05:49;96414.16;;;13.63;45.78
83460;BME280;73384;49.646;7.168;2024-03-25T10:08:20;96403.69;;;12.88;43.47
83460;BME280;73384;49.646;7.168;2024-03-25T10:10:45;96423.00;;;10.74;47.26
83460;BME280;73384;49.646;7.168;2024-03-25T10:13:11;96420.78;;;12.72;44.45
83460;BME280;73384;49.646;7.168;2024-03-25T10:15:39;96404.75;;;12.87;46.05
83460;BME280;73384;49.646;7.168;2024-03-25T10:18:05;96414.97;;;10.96;48.33
83460;BME280;73384;49.646;7.168;2024-03-25T10:20:47;96402.66;;;12.47;46.76
83460;BME280;73384;49.646;7.168;2024-03-25T10:23:23;96395.78;;;10.60;49.29
83460;BME280;73384;49.646;7.168;2024-03-25T10:25:52;96395.75;;;9.87;52.75
83460;BME280;73384;49.646;7.168;2024-03-25T10:28:18;96403.13;;;9.97;51.87
83460;BME280;73384;49.646;7.168;2024-03-25T10:30:44;96395.66;;;10.33;51.06
83460;BME280;73384;49.646;7.168;2024-03-25T10:33:10;96379.69;;;10.04;50.03
83460;BME280;73384;49.646;7.168;2024-03-25T10:35:37;96388.28;;;11.61;47.26
83460;BME280;73384;49.646;7.168;2024-03-25T10:38:05;96376.41;;;11.51;47.73
83460;BME280;73384;49.646;7.168;2024-03-25T10:40:34;96369.03;;;10.43;46.72
83460;BME280;73384;49.646;7.168;2024-03-25T10:43:03;96378.31;;;9.22;49.59
83460;BME280;73384;49.646;7.168;2024-03-25T10:45:45;96365.31;;;8.32;53.18
83460;BME280;73384;49.646;7.168;2024-03-25T10:48:27;96366.38;;;8.07;54.12
83460;BME280;73384;49.646;7.168;2024-03-25T10:50:55;96357.56;;;8.31;54.30
83460;BME280;73384;49.646;7.168;2024-03-25T10:53:22;96351.75;;;8.34;52.80
83460;BME280;73384;49.646;7.168;2024-03-25T10:55:55;96346.84;;;8.54;49.57
83460;BME280;73384;49.646;7.168;2024-03-25T10:58:22;96349.91;;;8.87;46.95
83460;BME280;73384;49.646;7.168;2024-03-25T11:00:49;96333.09;;;9.03;48.08
83460;BME280;73384;49.646;7.168;2024-03-25T11:03:15;96338.94;;;9.46;47.84
83460;BME280;73384;49.646;7.168;2024-03-25T11:05:41;96348.63;;;9.18;49.06
83460;BME280;73384;49.646;7.168;2024-03-25T11:08:14;96334.97;;;9.65;48.24
83460;BME280;73384;49.646;7.168;2024-03-25T11:10:49;96341.31;;;10.15;47.13
83460;BME280;73384;49.646;7.168;2024-03-25T11:13:18;96340.91;;;10.62;45.12
83460;BME280;73384;49.646;7.168;2024-03-25T11:15:45;96329.53;;;11.92;42.51
83460;BME280;73384;49.646;7.168;2024-03-25T11:18:12;96322.31;;;12.35;41.90
83460;BME280;73384;49.646;7.168;2024-03-25T11:20:40;96325.31;;;12.43;39.70
83460;BME280;73384;49.646;7.168;2024-03-25T11:23:13;96319.72;;;11.70;38.42
83460;BME280;73384;49.646;7.168;2024-03-25T11:25:40;96316.56;;;11.13;40.46
83460;BME280;73384;49.646;7.168;2024-03-25T11:28:27;96312.09;;;10.97;42.69
83460;BME280;73384;49.646;7.168;2024-03-25T11:30:56;96304.03;;;11.89;38.78
83460;BME280;73384;49.646;7.168;2024-03-25T11:33:22;96291.22;;;13.33;36.26
83460;BME280;73384;49.646;7.168;2024-03-25T11:35:49;96275.34;;;13.42;35.80
83460;BME280;73384;49.646;7.168;2024-03-25T11:38:23;96278.88;;;15.48;33.61
83460;BME280;73384;49.646;7.168;2024-03-25T11:40:49;96269.88;;;15.63;32.07
83460;BME280;73384;49.646;7.168;2024-03-25T11:43:18;96255.81;;;15.32;36.17
83460;BME280;73384;49.646;7.168;2024-03-25T11:45:47;96268.34;;;15.18;34.38
83460;BME280;73384;49.646;7.168;2024-03-25T11:48:21;96263.31;;;15.40;32.74
83460;BME280;73384;49.646;7.168;2024-03-25T11:50:48;96253.88;;;14.98;35.64
83460;BME280;73384;49.646;7.168;2024-03-25T11:53:14;96250.59;;;15.46;34.62
83460;BME280;73384;49.646;7.168;2024-03-25T11:55:46;96239.09;;;16.42;26.85
83460;BME280;73384;49.646;7.168;2024-03-25T11:58:11;96241.47;;;16.49;27.66
83460;BME280;73384;49.646;7.168;2024-03-25T12:00:49;96222.13;;;17.37;29.15
83460;BME280;73384;49.646;7.168;2024-03-25T12:03:15;96231.00;;;17.89;26.66
83460;BME280;73384;49.646;7.168;2024-03-25T12:05:42;96221.84;;;18.96;24.79
83460;BME280;73384;49.646;7.168;2024-03-25T12:08:08;96222.72;;;18.27;24.94
83460;BME280;73384;49.646;7.168;2024-03-25T12:10:48;96206.59;;;19.54;23.07
83460;BME280;73384;49.646;7.168;2024-03-25T12:13:43;96204.50;;;20.54;24.82
83460;BME280;73384;49.646;7.168;2024-03-25T12:16:10;96189.16;;;20.09;25.69
83460;BME280;73384;49.646;7.168;2024-03-25T12:18:40;96192.06;;;20.13;24.44
83460;BME280;73384;49.646;7.168;2024-03-25T12:21:07;96187.91;;;20.16;26.21
83460;BME280;73384;49.646;7.168;2024-03-25T12:23:33;96188.06;;;20.68;22.99
83460;BME280;73384;49.646;7.168;2024-03-25T12:26:00;96180.75;;;18.25;25.10
83460;BME280;73384;49.646;7.168;2024-03-25T12:28:26;96178.63;;;16.19;29.21
83460;BME280;73384;49.646;7.168;2024-03-25T12:30:53;96187.19;;;14.74;29.07
83460;BME280;73384;49.646;7.168;2024-03-25T12:33:22;96183.47;;;14.00;31.63
83460;BME280;73384;49.646;7.168;2024-03-25T12:35:49;96175.78;;;14.38;32.35
83460;BME280;73384;49.646;7.168;2024-03-25T12:38:24;96150.78;;;17.14;28.39
83460;BME280;73384;49.646;7.168;2024-03-25T12:40:50;96140.94;;;18.11;27.48
83460;BME280;73384;49.646;7.168;2024-03-25T12:43:16;96137.13;;;18.63;23.31
83460;BME280;73384;49.646;7.168;2024-03-25T12:45:42;96137.78;;;19.05;24.31
83460;BME280;73384;49.646;7.168;2024-03-25T12:48:10;96138.09;;;19.26;22.06
83460;BME280;73384;49.646;7.168;2024-03-25T12:50:36;96145.53;;;18.11;22.46
83460;BME280;73384;49.646;7.168;2024-03-25T12:53:09;96139.00;;;18.62;22.29
83460;BME280;73384;49.646;7.168;2024-03-25T12:55:41;96128.25;;;17.65;21.94
83460;BME280;73384;49.646;7.168;2024-03-25T12:58:07;96137.97;;;18.35;23.50
83460;BME280;73384;49.646;7.168;2024-03-25T13:00:33;96125.56;;;18.21;23.60
83460;BME280;73384;49.646;7.168;2024-03-25T13:02:59;96117.94;;;18.96;23.09
83460;BME280;73384;49.646;7.168;2024-03-25T13:05:25;96107.91;;;18.82;24.17
83460;BME280;73384;49.646;7.168;2024-03-25T13:07:51;96110.41;;;19.15;22.69
83460;BME280;73384;49.646;7.168;2024-03-25T13:10:16;96092.03;;;19.43;22.68
83460;BME280;73384;49.646;7.168;2024-03-25T13:12:52;96095.25;;;19.86;22.22
83460;BME280;73384;49.646;7.168;2024-03-25T13:15:45;96098.72;;;20.44;21.33
83460;BME280;73384;49.646;7.168;2024-03-25T13:18:12;96088.91;;;19.28;22.21
83460;BME280;73384;49.646;7.168;2024-03-25T13:20:37;96069.31;;;19.71;23.09
83460;BME280;73384;49.646;7.168;2024-03-25T13:23:25;96086.69;;;20.19;22.40
83460;BME280;73384;49.646;7.168;2024-03-25T13:25:55;96079.66;;;19.60;23.08
83460;BME280;73384;49.646;7.168;2024-03-25T13:28:21;96069.66;;;17.83;24.89
83460;BME280;73384;49.646;7.168;2024-03-25T13:30:47;96077.56;;;16.39;27.38
83460;BME280;73384;49.646;7.168;2024-03-25T13:33:12;96077.31;;;15.73;27.88
83460;BME280;73384;49.646;7.168;2024-03-25T13:35:38;96064.25;;;16.62;28.80
83460;BME280;73384;49.646;7.168;2024-03-25T13:38:03;96048.78;;;17.14;27.24
83460;BME280;73384;49.646;7.168;2024-03-25T13:40:29;96054.72;;;17.44;27.18
83460;BME280;73384;49.646;7.168;2024-03-25T13:43:01;96058.69;;;18.75;25.15
83460;BME280;73384;49.646;7.168;2024-03-25T13:45:26;96035.50;;;18.24;24.79
83460;BME280;73384;49.646;7.168;2024-03-25T13:47:59;96045.66;;;18.77;24.21
83460;BME280;73384;49.646;7.168;2024-03-25T13:50:25;96044.50;;;20.21;24.43
83460;BME280;73384;49.646;7.168;2024-03-25T13:52:50;96043.81;;;19.49;23.00
83460;BME280;73384;49.646;7.168;2024-03-25T13:55:21;96032.47;;;20.05;22.06
83460;BME280;73384;49.646;7.168;2024-03-25T13:57:46;96027.94;;;18.80;24.01
83460;BME280;73384;49.646;7.168;2024-03-25T14:00:12;96008.66;;;20.02;22.74
83460;BME280;73384;49.646;7.168;2024-03-25T14:02:40;96023.50;;;18.84;24.27
83460;BME280;73384;49.646;7.168;2024-03-25T14:05:23;96008.00;;;19.87;24.20
83460;BME280;73384;49.646;7.168;2024-03-25T14:07:49;96002.16;;;19.54;24.56
83460;BME280;73384;49.646;7.168;2024-03-25T14:10:14;95997.66;;;19.49;22.48
83460;BME280;73384;49.646;7.168;2024-03-25T14:13:10;96002.03;;;19.68;22.43
83460;BME280;73384;49.646;7.168;2024-03-25T14:15:51;95987.31;;;19.60;23.54
83460;BME280;73384;49.646;7.168;2024-03-25T14:18:19;95990.59;;;18.31;24.45
83460;BME280;73384;49.646;7.168;2024-03-25T14:20:47;95990.69;;;18.40;24.19
83460;BME280;73384;49.646;7.168;2024-03-25T14:23:13;95979.00;;;17.94;24.28
83460;BME280;73384;49.646;7.168;2024-03-25T14:25:38;95986.66;;;17.65;24.65
83460;BME280;73384;49.646;7.168;2024-03-25T14:28:10;95975.75;;;17.42;25.85
83460;BME280;73384;49.646;7.168;2024-03-25T14:30:36;95947.72;;;17.10;25.24
83460;BME280;73384;49.646;7.168;2024-03-25T14:33:01;95952.59;;;17.22;25.93
83460;BME280;73384;49.646;7.168;2024-03-25T14:35:34;95941.06;;;16.09;29.35
83460;BME280;73384;49.646;7.168;2024-03-25T14:37:59;95941.00;;;17.21;27.37
83460;BME280;73384;49.646;7.168;2024-03-25T14:40:26;95928.28;;;16.94;28.34
83460;BME280;73384;49.646;7.168;2024-03-25T14:43:01;95942.19;;;16.54;26.31
83460;BME280;73384;49.646;7.168;2024-03-25T14:45:27;95931.38;;;15.26;29.44
83460;BME280;73384;49.646;7.168;2024-03-25T14:47:54;95919.75;;;15.69;29.07
83460;BME280;73384;49.646;7.168;2024-03-25T14:50:19;95929.22;;;16.05;29.87
83460;BME280;73384;49.646;7.168;2024-03-25T14:52:45;95906.34;;;15.83;29.45
83460;BME280;73384;49.646;7.168;2024-03-25T14:55:11;95930.00;;;15.91;28.43
83460;BME280;73384;49.646;7.168;2024-03-25T14:57:40;95930.94;;;15.19;30.47
83460;BME280;73384;49.646;7.168;2024-03-25T15:00:13;95925.94;;;14.25;30.71
83460;BME280;73384;49.646;7.168;2024-03-25T15:02:39;95921.34;;;14.25;31.11
83460;BME280;73384;49.646;7.168;2024-03-25T15:05:04;95911.38;;;13.96;31.10
83460;BME280;73384;49.646;7.168;2024-03-25T15:07:30;95920.09;;;14.17;31.65
83460;BME280;73384;49.646;7.168;2024-03-25T15:09:56;95919.66;;;14.05;30.73
83460;BME280;73384;49.646;7.168;2024-03-25T15:12:21;95910.97;;;13.79;31.71
83460;BME280;73384;49.646;7.168;2024-03-25T15:14:49;95908.66;;;12.96;32.10
83460;BME280;73384;49.646;7.168;2024-03-25T15:17:15;95913.03;;;12.72;32.23
83460;BME280;73384;49.646;7.168;2024-03-25T15:19:40;95907.75;;;12.36;33.42
83460;BME280;73384;49.646;7.168;2024-03-25T15:22:05;95898.13;;;12.09;34.09
83460;BME280;73384;49.646;7.168;2024-03-25T15:24:31;95897.59;;;12.07;34.83
83460;BME280;73384;49.646;7.168;2024-03-25T15:26:56;95898.41;;;12.13;34.56
83460;BME280;73384;49.646;7.168;2024-03-25T15:29:21;95893.84;;;12.03;36.29
83460;BME280;73384;49.646;7.168;2024-03-25T15:31:47;95872.09;;;11.79;37.19
83460;BME280;73384;49.646;7.168;2024-03-25T15:34:12;95879.34;;;11.94;37.10
83460;BME280;73384;49.646;7.168;2024-03-25T15:36:38;95875.81;;;11.83;36.58